Time;durP1;ratioP1;P1;durP2;ratioP2;P2;SDS_P1;SDS_P2;PMS_P1;PMS_P2;Temp;Humidity;BMP_temperature;BMP_pressure;BME280_temperature;BME280_humidity;BME280_pressure;Samples;Min_cycle;Max_cycle;Signal;HPM_P1;HPM_P2
2023/08/19 00:00:55;;;;;;;31.42;26.40;;;22.40;99.90;;;;;;5041063;28;20040;-72
2023/08/19 00:03:21;;;;;;;33.08;25.63;;;22.40;99.90;;;;;;5036466;28;20029;-72
2023/08/19 00:05:47;;;;;;;27.90;25.00;;;22.40;99.90;;;;;;5030721;28;20040;-72
2023/08/19 00:08:13;;;;;;;30.80;24.15;;;22.40;99.90;;;;;;5026748;28;20036;-72
2023/08/19 00:10:39;;;;;;;31.48;28.13;;;22.40;99.90;;;;;;5049413;28;20059;-72
2023/08/19 00:13:05;;;;;;;32.33;27.75;;;22.40;99.90;;;;;;5040477;28;20025;-72
2023/08/19 00:15:31;;;;;;;30.08;24.13;;;22.40;99.90;;;;;;5029252;28;20052;-72
2023/08/19 00:17:57;;;;;;;28.77;24.67;;;22.30;99.90;;;;;;5029741;28;20033;-72
2023/08/19 00:20:26;;;;;;;32.90;28.25;;;22.40;99.90;;;;;;5031327;28;20033;-72
2023/08/19 00:22:51;;;;;;;31.73;27.75;;;22.40;99.90;;;;;;5043809;28;20024;-71
2023/08/19 00:25:17;;;;;;;25.70;22.92;;;22.40;99.90;;;;;;5044776;28;20106;-72
2023/08/19 00:27:42;;;;;;;25.65;22.17;;;22.40;99.90;;;;;;5050617;28;20691;-72
2023/08/19 00:30:08;;;;;;;26.13;23.35;;;22.30;99.90;;;;;;5028819;28;20055;-72
2023/08/19 00:32:34;;;;;;;25.95;23.30;;;22.30;99.90;;;;;;5030055;28;20036;-72
2023/08/19 00:34:59;;;;;;;27.05;24.33;;;22.30;99.90;;;;;;5031158;28;20024;-72
2023/08/19 00:37:25;;;;;;;27.92;24.25;;;22.20;99.90;;;;;;5039693;28;20115;-72
2023/08/19 00:39:50;;;;;;;29.73;26.83;;;22.10;99.90;;;;;;5033705;28;20025;-72
2023/08/19 00:42:16;;;;;;;28.05;24.92;;;22.00;99.90;;;;;;5034848;28;20033;-72
2023/08/19 00:44:41;;;;;;;28.33;23.75;;;21.90;99.90;;;;;;5038323;28;20040;-72
2023/08/19 00:47:07;;;;;;;33.13;27.50;;;21.90;99.90;;;;;;5028219;28;20025;-72
2023/08/19 00:49:33;;;;;;;26.45;23.80;;;21.80;99.90;;;;;;5030104;28;20080;-72
2023/08/19 00:51:59;;;;;;;26.55;23.35;;;21.80;99.90;;;;;;5036711;28;20469;-72
2023/08/19 00:54:26;;;;;;;27.83;24.80;;;21.70;99.90;;;;;;5035939;28;20029;-72
2023/08/19 00:56:51;;;;;;;29.02;26.05;;;21.70;99.90;;;;;;5038822;28;20040;-72
2023/08/19 00:59:18;;;;;;;30.90;26.50;;;21.70;99.90;;;;;;5052348;28;20025;-72
2023/08/19 01:01:43;;;;;;;24.98;21.95;;;21.70;99.90;;;;;;5035968;28;20128;-72
2023/08/19 01:04:09;;;;;;;26.05;23.23;;;21.80;99.90;;;;;;5043940;28;20116;-71
2023/08/19 01:06:47;;;;;;;26.73;23.88;;;21.90;99.90;;;;;;5037968;28;20116;-72
2023/08/19 01:09:30;;;;;;;24.90;20.98;;;22.00;99.90;;;;;;5035569;28;20021;-72
2023/08/19 01:12:14;;;;;;;25.63;23.15;;;22.00;99.90;;;;;;5039148;28;20025;-72
2023/08/19 01:15:07;;;;;;;26.13;23.30;;;22.00;99.90;;;;;;5042485;28;20018;-73
2023/08/19 01:17:34;;;;;;;25.95;22.33;;;22.00;99.90;;;;;;5039364;28;20049;-73
2023/08/19 01:20:00;;;;;;;31.85;24.63;;;21.90;99.90;;;;;;5038276;28;20610;-73
2023/08/19 01:22:51;;;;;;;30.00;26.83;;;21.90;99.90;;;;;;5036920;28;20024;-72
2023/08/19 01:25:18;;;;;;;29.08;25.75;;;21.80;99.90;;;;;;5030904;28;20480;-72
2023/08/19 01:27:44;;;;;;;27.80;24.98;;;21.80;99.90;;;;;;5039826;28;20037;-72
2023/08/19 01:30:09;;;;;;;28.20;25.23;;;21.80;99.90;;;;;;5035372;28;20021;-71
2023/08/19 01:32:36;;;;;;;29.08;24.38;;;21.80;99.90;;;;;;5039851;28;20104;-71
2023/08/19 01:35:02;;;;;;;27.13;24.30;;;21.80;99.90;;;;;;5035826;28;20120;-71
2023/08/19 01:37:38;;;;;;;25.70;23.00;;;21.80;99.90;;;;;;5036809;28;20172;-72
2023/08/19 01:40:07;;;;;;;31.33;24.83;;;21.80;99.90;;;;;;5035517;28;20026;-72
2023/08/19 01:42:32;;;;;;;31.17;26.73;;;21.80;99.90;;;;;;5037122;28;20060;-72
2023/08/19 01:44:59;;;;;;;29.58;26.40;;;21.70;99.90;;;;;;5035926;28;20064;-72
2023/08/19 01:47:24;;;;;;;27.92;24.95;;;21.70;99.90;;;;;;5035017;28;20428;-71
2023/08/19 01:49:50;;;;;;;32.05;27.77;;;21.60;99.90;;;;;;5034661;28;20056;-72
2023/08/19 01:52:17;;;;;;;31.30;28.05;;;21.60;99.90;;;;;;5037371;28;20361;-72
2023/08/19 01:54:43;;;;;;;32.33;28.90;;;21.50;99.90;;;;;;5039140;28;20100;-72
2023/08/19 01:57:08;;;;;;;33.53;26.55;;;21.50;99.90;;;;;;5045912;28;20531;-72
2023/08/19 01:59:34;;;;;;;32.15;28.45;;;21.50;99.90;;;;;;5034847;28;20029;-71
2023/08/19 02:02:00;;;;;;;39.28;28.58;;;21.50;99.90;;;;;;5036331;28;20074;-72
2023/08/19 02:04:26;;;;;;;33.80;29.27;;;21.40;99.90;;;;;;5038711;28;20108;-72
2023/08/19 02:06:51;;;;;;;34.15;28.45;;;21.40;99.90;;;;;;5054109;28;20021;-71
2023/08/19 02:09:17;;;;;;;33.88;29.67;;;21.40;99.90;;;;;;5042820;28;20499;-72
2023/08/19 02:11:42;;;;;;;30.92;26.75;;;21.30;99.90;;;;;;5035264;28;20013;-72
2023/08/19 02:14:08;;;;;;;31.98;27.00;;;21.30;99.90;;;;;;5042554;28;20108;-72
2023/08/19 02:16:34;;;;;;;35.25;27.20;;;21.30;99.90;;;;;;5030035;28;20116;-72
2023/08/19 02:19:00;;;;;;;32.90;28.02;;;21.30;99.90;;;;;;5038417;28;20036;-72
2023/08/19 02:21:26;;;;;;;36.92;28.10;;;21.20;99.90;;;;;;5032511;28;20179;-72
2023/08/19 02:23:53;;;;;;;32.15;27.52;;;21.20;99.90;;;;;;5036972;28;20034;-72
2023/08/19 02:26:19;;;;;;;27.30;23.00;;;21.10;99.90;;;;;;5031897;28;20029;-72
2023/08/19 02:28:44;;;;;;;33.92;28.85;;;21.20;99.90;;;;;;5037653;28;20048;-72
2023/08/19 02:31:10;;;;;;;31.58;27.67;;;21.20;99.90;;;;;;5032740;28;20100;-72
2023/08/19 02:33:36;;;;;;;32.20;28.27;;;21.20;99.90;;;;;;5034239;28;20025;-72
2023/08/19 02:36:02;;;;;;;41.92;33.55;;;21.30;99.90;;;;;;5053377;28;20456;-72
2023/08/19 02:38:27;;;;;;;35.72;28.23;;;21.20;99.90;;;;;;5044231;28;20037;-72
2023/08/19 02:40:53;;;;;;;32.47;29.15;;;21.20;99.90;;;;;;5049810;28;20052;-73
2023/08/19 02:43:19;;;;;;;31.92;26.52;;;21.10;99.90;;;;;;5048433;28;20494;-72
2023/08/19 02:45:46;;;;;;;29.45;23.48;;;21.10;99.90;;;;;;5034010;28;20438;-72
2023/08/19 02:48:11;;;;;;;28.63;22.92;;;21.20;99.90;;;;;;5033076;28;20021;-72
2023/08/19 02:50:37;;;;;;;26.60;20.65;;;21.30;99.90;;;;;;5040442;28;20541;-72
2023/08/19 02:53:03;;;;;;;29.98;26.77;;;21.30;99.90;;;;;;5043621;28;20021;-72
2023/08/19 02:55:28;;;;;;;30.92;25.23;;;21.30;99.90;;;;;;5044315;28;20558;-72
2023/08/19 02:57:54;;;;;;;26.90;22.25;;;21.30;99.90;;;;;;5040925;28;20079;-72
2023/08/19 03:00:19;;;;;;;27.98;25.08;;;21.20;99.90;;;;;;5031242;28;20140;-72
2023/08/19 03:02:46;;;;;;;27.60;24.65;;;21.10;99.90;;;;;;5031558;28;20079;-72
2023/08/19 03:05:12;;;;;;;26.50;22.80;;;21.00;99.90;;;;;;5032588;28;20472;-71
2023/08/19 03:07:38;;;;;;;25.05;22.25;;;20.80;99.90;;;;;;5041921;28;20029;-71
2023/08/19 03:10:04;;;;;;;28.63;24.83;;;20.80;99.90;;;;;;5035807;28;20141;-71
2023/08/19 03:12:29;;;;;;;23.70;21.30;;;20.80;99.90;;;;;;5049321;28;20150;-71
2023/08/19 03:14:55;;;;;;;30.70;25.80;;;20.90;99.90;;;;;;5038973;28;20108;-72
2023/08/19 03:17:21;;;;;;;28.70;25.70;;;20.90;99.90;;;;;;5031117;28;20387;-72
2023/08/19 03:19:46;;;;;;;28.48;25.42;;;20.80;99.90;;;;;;5031530;28;20030;-72
2023/08/19 03:22:12;;;;;;;28.30;24.83;;;20.70;99.90;;;;;;5032597;28;20484;-72
2023/08/19 03:24:38;;;;;;;28.92;25.58;;;20.60;99.90;;;;;;5033068;28;20029;-72
2023/08/19 03:27:04;;;;;;;27.88;24.98;;;20.50;99.90;;;;;;5035835;28;20116;-72
2023/08/19 03:29:29;;;;;;;22.63;20.30;;;20.40;99.90;;;;;;5046279;28;20069;-72
2023/08/19 03:31:56;;;;;;;26.90;24.02;;;20.40;99.90;;;;;;5031064;28;20100;-72
2023/08/19 03:34:22;;;;;;;28.77;25.85;;;20.50;99.90;;;;;;5039507;28;20021;-72
2023/08/19 03:36:48;;;;;;;31.02;26.80;;;20.50;99.90;;;;;;5051793;28;20035;-70
2023/08/19 03:39:14;;;;;;;24.48;21.80;;;20.50;99.90;;;;;;5048873;28;20088;-71
2023/08/19 03:41:39;;;;;;;28.73;25.75;;;20.50;99.90;;;;;;5030739;28;20040;-71
2023/08/19 03:44:05;;;;;;;27.35;23.33;;;20.50;99.90;;;;;;5030602;28;20040;-72
2023/08/19 03:46:30;;;;;;;26.33;23.58;;;20.40;99.90;;;;;;5043423;28;20032;-72
2023/08/19 03:48:56;;;;;;;27.65;24.60;;;20.40;99.90;;;;;;5035214;28;20086;-72
2023/08/19 03:51:21;;;;;;;28.40;25.20;;;20.50;99.90;;;;;;5042587;28;20025;-72
2023/08/19 03:53:47;;;;;;;30.23;26.40;;;20.50;99.90;;;;;;5037086;28;20026;-72
2023/08/19 03:56:12;;;;;;;26.90;24.15;;;20.50;99.90;;;;;;5051775;28;20467;-72
2023/08/19 03:58:38;;;;;;;27.65;24.75;;;20.50;99.90;;;;;;5042178;28;20484;-72
2023/08/19 04:01:07;;;;;;;34.45;28.48;;;20.50;99.90;;;;;;5035691;28;20024;-72
2023/08/19 04:03:33;;;;;;;34.50;30.40;;;20.50;99.90;;;;;;5033054;28;20021;-72
2023/08/19 04:05:59;;;;;;;30.25;27.17;;;20.50;99.90;;;;;;5047724;28;20021;-72
2023/08/19 04:08:25;;;;;;;31.23;27.83;;;20.50;99.90;;;;;;5036591;28;20036;-72
2023/08/19 04:10:51;;;;;;;32.08;28.65;;;20.40;99.90;;;;;;5029737;28;20205;-72
2023/08/19 04:13:17;;;;;;;32.95;29.48;;;20.40;99.90;;;;;;5031546;28;20510;-72
2023/08/19 04:15:43;;;;;;;30.08;26.67;;;20.40;99.90;;;;;;5032325;28;20431;-72
2023/08/19 04:18:09;;;;;;;35.80;31.88;;;20.40;99.90;;;;;;5046513;28;20021;-72
2023/08/19 04:20:38;;;;;;;33.40;28.65;;;20.40;99.90;;;;;;5029921;28;20057;-72
2023/08/19 04:23:04;;;;;;;32.25;28.20;;;20.40;99.90;;;;;;5035533;28;20040;-72
2023/08/19 04:25:30;;;;;;;32.28;28.52;;;20.40;99.90;;;;;;5046158;28;20487;-72
2023/08/19 04:27:56;;;;;;;35.10;29.40;;;20.50;99.90;;;;;;5051103;28;20383;-72
2023/08/19 04:30:21;;;;;;;32.58;27.73;;;20.40;99.90;;;;;;5037346;28;20021;-72
2023/08/19 04:32:47;;;;;;;33.53;29.95;;;20.40;99.90;;;;;;5037255;28;20415;-72
2023/08/19 04:35:12;;;;;;;31.35;28.10;;;20.40;99.90;;;;;;5045140;28;20013;-72
2023/08/19 04:37:38;;;;;;;34.45;30.70;;;20.40;99.90;;;;;;5042147;28;20033;-72
2023/08/19 04:40:09;;;;;;;38.00;30.10;;;20.50;99.90;;;;;;5044414;28;20083;-71
2023/08/19 04:42:35;;;;;;;39.80;32.25;;;20.60;99.90;;;;;;5034581;28;20087;-71
2023/08/19 04:45:01;;;;;;;33.08;28.33;;;20.90;99.90;;;;;;5037086;28;20048;-72
2023/08/19 04:47:26;;;;;;;39.05;30.00;;;21.10;99.90;;;;;;5044403;28;20033;-72
2023/08/19 04:49:52;;;;;;;32.22;27.92;;;21.40;99.90;;;;;;5042186;28;20487;-71
2023/08/19 04:52:17;;;;;;;36.30;28.83;;;21.60;99.90;;;;;;5031171;28;20033;-71
2023/08/19 04:54:43;;;;;;;32.40;28.98;;;21.90;99.90;;;;;;5035956;28;20064;-71
2023/08/19 04:57:08;;;;;;;36.33;31.63;;;22.10;99.90;;;;;;5047325;28;20045;-71
2023/08/19 04:59:34;;;;;;;35.42;28.52;;;22.30;99.90;;;;;;5039012;28;20480;-71
2023/08/19 05:02:00;;;;;;;31.63;25.98;;;22.40;99.90;;;;;;5029662;28;20095;-72
2023/08/19 05:04:25;;;;;;;31.58;27.35;;;22.50;99.90;;;;;;5037673;28;20037;-72
2023/08/19 05:06:51;;;;;;;26.23;23.42;;;22.50;99.90;;;;;;5048689;28;20029;-72
2023/08/19 05:09:17;;;;;;;29.25;25.75;;;22.50;99.90;;;;;;5050658;28;20017;-72
2023/08/19 05:11:43;;;;;;;34.47;26.38;;;22.50;99.90;;;;;;5041443;28;20511;-72
2023/08/19 05:14:08;;;;;;;28.05;25.08;;;22.60;99.90;;;;;;5030171;28;20021;-72
2023/08/19 05:16:34;;;;;;;28.23;25.23;;;22.70;99.90;;;;;;5028845;28;20182;-72
2023/08/19 05:19:16;;;;;;;30.02;23.63;;;22.80;99.90;;;;;;5032464;28;20521;-72
2023/08/19 05:21:42;;;;;;;26.85;23.95;;;23.00;99.90;;;;;;5043496;28;20075;-72
2023/08/19 05:24:09;;;;;;;27.33;23.45;;;23.20;99.90;;;;;;5042502;28;20126;-71
2023/08/19 05:26:35;;;;;;;28.50;22.73;;;23.40;99.90;;;;;;5045150;28;20098;-72
2023/08/19 05:29:00;;;;;;;27.80;23.95;;;23.50;99.90;;;;;;5043276;28;20547;-72
2023/08/19 05:31:26;;;;;;;29.33;26.13;;;23.70;99.90;;;;;;5022256;28;20044;-72
2023/08/19 05:33:51;;;;;;;27.52;24.05;;;23.80;99.90;;;;;;5029559;28;20025;-72
2023/08/19 05:36:17;;;;;;;28.83;25.73;;;23.80;99.90;;;;;;5029224;28;20531;-72
2023/08/19 05:38:42;;;;;;;26.13;23.17;;;23.80;99.90;;;;;;5031076;28;20022;-72
2023/08/19 05:41:08;;;;;;;28.20;25.15;;;23.70;99.90;;;;;;5037150;28;20014;-72
2023/08/19 05:43:33;;;;;;;27.98;23.00;;;23.70;99.90;;;;;;5034189;28;20116;-72
2023/08/19 05:46:02;;;;;;;26.65;22.60;;;23.70;99.90;;;;;;5033243;28;20033;-72
2023/08/19 05:48:28;;;;;;;25.98;22.60;;;23.70;99.90;;;;;;5031206;28;20065;-71
2023/08/19 05:50:53;;;;;;;24.52;22.02;;;23.70;99.90;;;;;;5037806;28;20032;-70
2023/08/19 05:53:19;;;;;;;27.00;21.98;;;23.70;99.90;;;;;;5030946;28;20104;-70
2023/08/19 05:55:44;;;;;;;24.10;21.60;;;23.70;99.90;;;;;;5034802;28;20391;-71
2023/08/19 05:58:10;;;;;;;26.15;22.38;;;23.70;99.90;;;;;;5037963;28;20036;-70
2023/08/19 06:00:35;;;;;;;31.90;22.65;;;23.70;99.90;;;;;;5038946;28;20388;-71
2023/08/19 06:03:01;;;;;;;25.10;22.52;;;23.70;99.90;;;;;;5031510;28;20029;-71
2023/08/19 06:05:26;;;;;;;25.90;20.58;;;23.70;99.90;;;;;;5031772;28;20041;-73
2023/08/19 06:07:52;;;;;;;23.15;20.67;;;23.80;99.90;;;;;;5031081;28;20036;-72
2023/08/19 06:10:18;;;;;;;23.50;21.05;;;23.90;99.90;;;;;;5039754;28;20055;-73
2023/08/19 06:12:44;;;;;;;23.63;21.23;;;24.00;99.90;;;;;;5034124;28;20511;-72
2023/08/19 06:15:10;;;;;;;24.15;21.70;;;24.00;99.90;;;;;;5033594;28;20074;-73
2023/08/19 06:17:35;;;;;;;23.75;21.27;;;24.00;99.90;;;;;;5033211;28;20052;-73
2023/08/19 06:20:01;;;;;;;21.42;19.13;;;24.00;99.90;;;;;;5045326;28;20024;-73
2023/08/19 06:22:26;;;;;;;21.40;19.20;;;24.20;99.90;;;;;;5035119;28;20033;-73
2023/08/19 06:24:52;;;;;;;21.33;19.05;;;24.20;99.90;;;;;;5028213;28;20026;-73
2023/08/19 06:27:17;;;;;;;20.50;18.33;;;24.20;99.90;;;;;;5036396;28;20037;-73
2023/08/19 06:29:43;;;;;;;21.63;17.90;;;24.30;99.90;;;;;;5026051;28;20029;-74
2023/08/19 06:32:09;;;;;;;23.30;18.75;;;24.40;99.90;;;;;;5025869;28;20037;-73
2023/08/19 06:34:35;;;;;;;18.60;16.80;;;24.40;99.90;;;;;;5026475;28;20048;-73
2023/08/19 06:37:03;;;;;;;20.67;18.08;;;24.50;99.90;;;;;;5016601;28;20503;-73
2023/08/19 06:39:30;;;;;;;20.52;18.52;;;24.50;99.90;;;;;;5022411;28;20384;-72
2023/08/19 06:42:04;;;;;;;20.52;18.42;;;24.60;99.90;;;;;;5033606;28;20112;-73
2023/08/19 06:44:31;;;;;;;20.45;17.95;;;24.60;99.90;;;;;;5040356;28;20025;-73
2023/08/19 06:46:57;;;;;;;19.85;17.88;;;24.60;99.90;;;;;;5029014;28;20163;-74
2023/08/19 06:49:23;;;;;;;23.40;17.63;;;24.70;99.90;;;;;;5029886;28;20029;-74
2023/08/19 06:51:49;;;;;;;27.13;18.30;;;24.80;99.90;;;;;;5032438;28;20021;-73
2023/08/19 06:54:15;;;;;;;19.45;17.35;;;24.90;99.90;;;;;;5028275;28;20037;-72
2023/08/19 06:56:57;;;;;;;20.67;18.67;;;25.00;99.90;;;;;;5032658;28;20025;-73
2023/08/19 06:59:38;;;;;;;21.27;18.98;;;25.00;99.90;;;;;;5032151;28;20025;-73
2023/08/19 07:02:05;;;;;;;19.48;17.38;;;25.10;99.90;;;;;;5030645;28;20041;-72
2023/08/19 07:04:31;;;;;;;25.13;21.42;;;25.20;99.90;;;;;;5035103;28;20047;-72
2023/08/19 07:06:59;;;;;;;20.40;18.35;;;25.20;99.90;;;;;;5044647;28;20025;-73
2023/08/19 07:09:25;;;;;;;20.55;18.35;;;25.30;99.90;;;;;;5031359;28;20029;-74
2023/08/19 07:11:55;;;;;;;19.33;17.25;;;25.30;99.90;;;;;;5041049;28;20392;-74
2023/08/19 07:14:25;;;;;;;21.17;17.75;;;25.50;99.90;;;;;;5052609;28;20024;-74
2023/08/19 07:16:51;;;;;;;20.02;17.48;;;25.60;99.90;;;;;;5050326;28;20029;-74
2023/08/19 07:19:25;;;;;;;17.63;15.57;;;25.70;99.90;;;;;;5037523;28;20025;-74
2023/08/19 07:21:51;;;;;;;17.05;15.10;;;25.70;99.90;;;;;;5043128;28;20447;-74
2023/08/19 07:24:17;;;;;;;16.70;14.82;;;25.80;99.90;;;;;;5049323;28;20467;-74
2023/08/19 07:26:44;;;;;;;19.55;16.67;;;25.80;99.90;;;;;;5049019;28;20059;-74
2023/08/19 07:29:10;;;;;;;14.73;13.30;;;25.90;99.90;;;;;;5043068;28;20044;-74
2023/08/19 07:31:36;;;;;;;16.10;14.25;;;25.90;99.90;;;;;;5044795;28;20029;-74
2023/08/19 07:34:02;;;;;;;13.95;12.63;;;26.00;99.90;;;;;;5047653;28;20024;-73
2023/08/19 07:36:27;;;;;;;15.07;13.57;;;26.20;99.90;;;;;;5046686;28;20025;-73
2023/08/19 07:38:53;;;;;;;15.90;13.77;;;26.20;99.90;;;;;;5045686;28;20052;-73
2023/08/19 07:41:19;;;;;;;16.80;15.00;;;26.40;99.90;;;;;;5046631;28;20103;-73
2023/08/19 07:43:46;;;;;;;14.77;13.32;;;26.60;99.90;;;;;;5043976;28;20104;-73
2023/08/19 07:46:15;;;;;;;16.50;12.98;;;26.60;99.90;;;;;;5046347;28;20029;-73
2023/08/19 07:48:44;;;;;;;15.43;12.23;;;26.60;99.90;;;;;;5050258;28;20075;-73
2023/08/19 07:51:10;;;;;;;14.20;12.90;;;26.70;99.90;;;;;;5050042;28;20029;-73
2023/08/19 07:53:35;;;;;;;13.82;12.30;;;26.80;99.90;;;;;;5049545;28;20032;-73
2023/08/19 07:56:01;;;;;;;13.18;11.88;;;26.80;99.90;;;;;;5048292;28;20025;-73
2023/08/19 07:58:26;;;;;;;15.43;13.05;;;26.90;99.90;;;;;;5051869;28;20039;-73
2023/08/19 08:00:52;;;;;;;12.43;11.23;;;27.10;99.90;;;;;;5043304;28;20080;-73
2023/08/19 08:03:18;;;;;;;12.02;10.90;;;27.20;99.90;;;;;;5043713;28;20083;-73
2023/08/19 08:05:43;;;;;;;12.07;10.88;;;27.20;99.90;;;;;;5051563;28;20028;-73
2023/08/19 08:08:09;;;;;;;13.10;11.88;;;27.20;99.90;;;;;;5051367;28;20503;-73
2023/08/19 08:10:35;;;;;;;12.55;11.27;;;27.20;99.90;;;;;;5040842;28;20068;-73
2023/08/19 08:13:00;;;;;;;13.68;12.38;;;27.30;99.90;;;;;;5043451;28;20111;-73
2023/08/19 08:15:26;;;;;;;11.82;10.60;;;27.40;99.90;;;;;;5049982;28;20112;-74
2023/08/19 08:17:51;;;;;;;13.27;12.02;;;27.50;99.90;;;;;;5035579;28;20021;-74
2023/08/19 08:20:17;;;;;;;12.15;11.00;;;27.60;99.90;;;;;;5051518;28;20311;-73
2023/08/19 08:22:43;;;;;;;12.85;11.63;;;27.70;99.90;;;;;;5051592;28;20044;-74
2023/08/19 08:25:12;;;;;;;13.13;11.82;;;27.80;99.80;;;;;;5051723;28;20478;-73
2023/08/19 08:27:37;;;;;;;15.13;9.70;;;27.90;99.90;;;;;;5042409;28;20475;-73
2023/08/19 08:30:05;;;;;;;10.30;9.40;;;28.00;99.60;;;;;;5047283;28;20108;-74
2023/08/19 08:32:31;;;;;;;11.63;10.32;;;28.00;99.30;;;;;;5051519;28;20074;-74
2023/08/19 08:34:56;;;;;;;11.43;10.32;;;28.10;99.40;;;;;;5048867;28;20543;-73
2023/08/19 08:37:22;;;;;;;11.85;10.65;;;28.10;99.00;;;;;;5051219;28;20071;-74
2023/08/19 08:39:47;;;;;;;11.55;10.45;;;28.20;99.10;;;;;;5050867;28;20032;-74
2023/08/19 08:42:13;;;;;;;10.95;9.88;;;28.30;98.90;;;;;;5042419;28;20403;-73
2023/08/19 08:44:39;;;;;;;10.57;9.52;;;28.40;99.00;;;;;;5048007;28;20543;-74
2023/08/19 08:47:05;;;;;;;9.38;8.57;;;28.60;98.60;;;;;;5049045;28;20029;-74
2023/08/19 08:49:31;;;;;;;10.88;8.93;;;28.60;97.80;;;;;;5042606;28;20475;-73
2023/08/19 08:51:58;;;;;;;9.73;8.82;;;28.60;97.90;;;;;;5050818;28;20017;-73
2023/08/19 08:54:24;;;;;;;8.52;7.82;;;28.70;97.70;;;;;;5045776;28;20098;-74
2023/08/19 08:56:50;;;;;;;10.48;8.40;;;28.70;97.70;;;;;;5047678;28;20578;-74
2023/08/19 08:59:16;;;;;;;8.30;7.60;;;28.80;97.80;;;;;;5045873;28;20067;-73
2023/08/19 09:01:45;;;;;;;10.93;8.48;;;28.90;97.30;;;;;;5051022;28;20025;-74
2023/08/19 09:04:13;;;;;;;7.95;7.20;;;29.00;97.30;;;;;;5050739;28;20159;-73
2023/08/19 09:06:41;;;;;;;10.55;7.53;;;29.00;97.00;;;;;;5046311;28;20025;-74
2023/08/19 09:09:12;;;;;;;8.75;7.95;;;29.20;97.00;;;;;;5043632;28;20122;-73
2023/08/19 09:11:40;;;;;;;8.18;7.45;;;29.30;96.90;;;;;;5043345;28;20029;-73
2023/08/19 09:14:09;;;;;;;12.68;7.72;;;29.30;96.20;;;;;;5050398;28;20025;-74
2023/08/19 09:16:35;;;;;;;9.45;8.45;;;29.30;96.70;;;;;;5048040;28;20036;-74
2023/08/19 09:19:01;;;;;;;8.13;7.35;;;29.40;96.50;;;;;;5046237;28;20025;-74
2023/08/19 09:21:26;;;;;;;9.93;7.38;;;29.60;95.90;;;;;;5054990;28;20013;-74
2023/08/19 09:23:52;;;;;;;7.82;7.15;;;29.70;96.10;;;;;;5046496;28;20033;-74
2023/08/19 09:26:18;;;;;;;7.60;6.82;;;29.80;95.70;;;;;;5045936;28;20029;-74
2023/08/19 09:28:43;;;;;;;8.02;7.32;;;29.90;95.60;;;;;;5048015;28;20025;-74
2023/08/19 09:31:20;;;;;;;7.68;6.97;;;30.00;95.10;;;;;;5051922;28;20045;-74
2023/08/19 09:33:49;;;;;;;7.32;6.72;;;30.20;95.30;;;;;;5054740;28;20071;-74
2023/08/19 09:36:14;;;;;;;7.63;6.93;;;30.40;95.00;;;;;;5054323;28;20079;-74
2023/08/19 09:38:41;;;;;;;6.60;6.00;;;30.60;95.20;;;;;;5041862;28;20037;-74
2023/08/19 09:41:07;;;;;;;8.63;6.15;;;30.80;94.30;;;;;;5054027;28;20031;-74
2023/08/19 09:43:33;;;;;;;6.35;5.85;;;30.90;94.10;;;;;;5046214;28;20029;-74
2023/08/19 09:45:59;;;;;;;6.32;5.72;;;31.00;93.70;;;;;;5046120;28;20029;-73
2023/08/19 09:48:25;;;;;;;6.65;5.18;;;31.00;92.60;;;;;;5040176;28;20032;-74
2023/08/19 09:50:51;;;;;;;5.03;4.63;;;30.90;92.40;;;;;;5054028;28;20388;-74
2023/08/19 09:53:17;;;;;;;5.68;5.15;;;30.90;91.80;;;;;;5054171;28;20024;-74
2023/08/19 09:55:47;;;;;;;7.45;5.55;;;30.80;91.70;;;;;;5054070;28;20025;-74
2023/08/19 09:58:13;;;;;;;7.38;5.65;;;30.90;91.20;;;;;;5045355;28;20029;-74
2023/08/19 10:00:39;;;;;;;7.57;5.25;;;30.90;91.30;;;;;;5042370;28;20029;-74
2023/08/19 10:03:06;;;;;;;6.03;5.05;;;31.00;91.20;;;;;;5051719;28;20091;-74
2023/08/19 10:05:37;;;;;;;5.10;4.70;;;31.00;91.10;;;;;;5039947;28;20419;-74
2023/08/19 10:08:13;;;;;;;7.25;5.00;;;31.10;90.40;;;;;;5042479;28;20078;-73
2023/08/19 10:10:42;;;;;;;9.48;5.93;;;31.10;91.20;;;;;;5032017;28;20061;-73
2023/08/19 10:13:11;;;;;;;5.70;4.85;;;31.10;90.60;;;;;;5031952;28;20365;-73
2023/08/19 10:15:38;;;;;;;5.97;5.47;;;31.30;91.10;;;;;;5031081;28;20021;-74
2023/08/19 10:18:17;;;;;;;8.90;6.28;;;31.40;91.20;;;;;;5029635;28;20104;-74
2023/08/19 10:20:47;;;;;;;6.35;5.75;;;31.60;90.50;;;;;;5035300;28;20104;-73
2023/08/19 10:23:14;;;;;;;12.20;10.93;;;31.60;89.90;;;;;;5040764;28;20025;-73
2023/08/19 10:25:42;;;;;;;7.22;6.43;;;31.60;90.20;;;;;;5032197;28;20048;-72
2023/08/19 10:28:11;;;;;;;12.55;11.07;;;31.60;90.30;;;;;;5031112;28;20499;-72
2023/08/19 10:30:37;;;;;;;9.43;6.43;;;31.50;90.10;;;;;;5037978;28;20057;-72
2023/08/19 10:33:29;;;;;;;6.35;5.75;;;31.60;90.20;;;;;;5030189;28;20457;-73
2023/08/19 10:36:06;;;;;;;5.75;5.22;;;31.80;89.80;;;;;;5031706;28;20037;-74
2023/08/19 10:38:55;;;;;;;6.63;5.80;;;32.00;89.00;;;;;;5040033;28;20399;-75
2023/08/19 10:41:27;;;;;;;5.22;4.72;;;32.00;88.40;;;;;;5039158;28;20124;-74
2023/08/19 10:43:58;;;;;;;6.75;5.10;;;32.00;88.50;;;;;;5046072;28;20108;-75
2023/08/19 10:46:30;;;;;;;6.50;4.63;;;32.00;88.20;;;;;;5038125;28;20028;-74
2023/08/19 10:48:55;;;;;;;6.95;5.13;;;32.10;87.00;;;;;;5051857;28;20112;-75
2023/08/19 10:52:03;;;;;;;7.55;6.85;;;32.20;85.70;;;;;;5050430;28;20064;-75
2023/08/19 10:54:43;;;;;;;10.02;5.57;;;32.10;85.60;;;;;;5050352;28;20022;-75
2023/08/19 10:57:14;;;;;;;9.60;4.68;;;32.00;87.20;;;;;;5046296;28;20028;-75
2023/08/19 10:59:42;;;;;;;5.68;4.60;;;31.90;85.80;;;;;;5053719;28;20029;-75
2023/08/19 11:02:09;;;;;;;5.68;5.28;;;31.90;87.10;;;;;;5045260;28;20160;-75
2023/08/19 11:04:38;;;;;;;7.28;4.82;;;31.90;86.00;;;;;;5041638;28;20037;-74
2023/08/19 11:07:06;;;;;;;4.68;4.20;;;31.90;86.00;;;;;;5050468;28;20109;-74
2023/08/19 11:09:32;;;;;;;5.05;3.88;;;31.90;85.50;;;;;;5047923;28;20039;-74
2023/08/19 11:11:57;;;;;;;5.45;4.80;;;31.90;84.40;;;;;;5052713;28;20017;-74
2023/08/19 11:14:23;;;;;;;6.63;3.90;;;31.90;84.60;;;;;;5052874;28;20669;-74
2023/08/19 11:16:50;;;;;;;5.25;3.72;;;32.00;84.70;;;;;;5045990;28;20121;-74
2023/08/19 11:19:16;;;;;;;4.35;3.85;;;32.20;84.20;;;;;;5052546;28;20053;-74
2023/08/19 11:21:45;;;;;;;3.38;3.15;;;32.30;82.60;;;;;;5049067;28;20399;-74
2023/08/19 11:24:13;;;;;;;8.13;5.32;;;32.40;81.60;;;;;;5039709;28;20107;-74
2023/08/19 11:26:43;;;;;;;10.32;7.22;;;32.60;83.10;;;;;;5040716;28;20387;-74
2023/08/19 11:29:09;;;;;;;5.03;4.53;;;32.70;80.40;;;;;;5052033;28;20502;-74
2023/08/19 11:31:36;;;;;;;5.22;3.72;;;32.70;80.90;;;;;;5046962;28;20032;-74
2023/08/19 11:34:09;;;;;;;15.38;13.77;;;32.80;81.30;;;;;;5048562;28;20422;-75
2023/08/19 11:36:36;;;;;;;16.27;14.50;;;32.90;81.10;;;;;;5046151;28;20421;-74
2023/08/19 11:39:04;;;;;;;6.95;6.25;;;32.90;79.60;;;;;;5051257;28;20207;-74
2023/08/19 11:41:30;;;;;;;5.82;4.60;;;32.80;79.10;;;;;;5048839;28;20025;-74
2023/08/19 11:43:57;;;;;;;4.80;3.60;;;32.80;80.30;;;;;;5049000;28;20426;-74
2023/08/19 11:46:26;;;;;;;5.05;4.55;;;33.00;79.50;;;;;;5052064;28;20603;-74
2023/08/19 11:48:52;;;;;;;4.30;3.90;;;33.10;78.30;;;;;;5036554;28;20484;-74
2023/08/19 11:51:19;;;;;;;4.95;4.35;;;33.20;79.30;;;;;;5048110;28;20036;-74
2023/08/19 11:53:49;;;;;;;5.25;4.65;;;33.30;79.90;;;;;;5042121;28;20047;-74
2023/08/19 11:56:14;;;;;;;12.52;6.07;;;33.30;78.50;;;;;;5043465;28;20032;-74
2023/08/19 11:58:41;;;;;;;7.95;4.63;;;33.30;77.40;;;;;;5041645;28;20025;-74
2023/08/19 12:01:07;;;;;;;10.25;6.07;;;33.30;76.80;;;;;;5051544;28;20527;-75
2023/08/19 12:03:32;;;;;;;7.35;4.68;;;33.50;76.30;;;;;;5046753;28;20629;-74
2023/08/19 12:05:58;;;;;;;5.72;3.85;;;33.50;76.90;;;;;;5043390;28;20054;-74
2023/08/19 12:08:31;;;;;;;6.18;3.17;;;33.60;76.10;;;;;;5045538;28;20033;-74
2023/08/19 12:10:57;;;;;;;6.40;4.25;;;33.70;76.60;;;;;;5039184;28;20451;-74
2023/08/19 12:13:23;;;;;;;3.97;3.50;;;33.80;75.20;;;;;;5049440;28;20021;-73
2023/08/19 12:15:49;;;;;;;5.28;3.45;;;33.80;74.60;;;;;;5039127;28;20106;-74
2023/08/19 12:18:16;;;;;;;8.38;3.90;;;33.80;75.00;;;;;;5048059;28;20025;-74
2023/08/19 12:20:43;;;;;;;6.10;3.95;;;33.90;75.60;;;;;;5046440;28;20123;-74
2023/08/19 12:23:08;;;;;;;4.60;3.67;;;33.90;74.40;;;;;;5043989;28;20108;-74
2023/08/19 12:25:48;;;;;;;3.65;3.33;;;33.90;74.50;;;;;;5043339;28;20159;-74
2023/08/19 12:28:14;;;;;;;8.98;3.55;;;33.90;73.60;;;;;;5034427;28;20021;-74
2023/08/19 12:30:39;;;;;;;10.80;9.70;;;33.90;74.10;;;;;;5048996;28;20024;-74
2023/08/19 12:33:05;;;;;;;7.20;6.25;;;34.00;72.70;;;;;;5035813;28;20562;-75